Impacts TAF Board
For situational awareness. Not to be used for flight planning purposes.
IDs:

KBUF - Buffalo-Niagara Intl, NY, US

Issued at 0550 UTC 22 Oct 2021
Updated at 0722 UTC 22 Oct 2021
Potential Impact None Slight Moderate High
Time0654Z 22/08Z 22/09Z 22/10Z 22/11Z 22/12Z 22/13Z 22/14Z 22/15Z 22/16Z 22/17Z 22/18Z 22/19Z 22/20Z>>
Type OBS PRVL PRVL PRVL PRVL PRVL PRVL PRVL PRVL PRVL PRVL PRVL PRVL PRVL
VIS 10 >6 >6 >6 >6 >6 >6 >6 >6 >6 >6 >6 >6 >6
CIG 18 12 12 12 12 12 12 12 25 25 25 25 25 25
Cover OVC OVC OVC OVC OVC OVC OVC OVC BKN BKN BKN BKN BKN BKN
FltCat MVFR MVFR MVFR MVFR MVFR MVFR MVFR MVFR MVFR MVFR MVFR MVFR MVFR MVFR
WX -- -- -- -- -- -- -- -- -- -- -- -- -- --
WDir 310 300 300 300 300 300 300 300 300 300 300 300 300 300
WSpd 13 14 14 14 14 14 14 14 10 10 10 10 10 10
WGst 21 22 22 22 22 22 22 22 -- -- -- -- -- --
Raw TAF
KBUF 220550Z 2206/2306 27012G20KT P6SM VCSH BKN010
  FM220700 30014G22KT P6SM OVC012
  FM221500 30010KT P6SM BKN025
  FM222100 32005KT P6SM BKN040


Raw METAR
KBUF 220654Z 31013G21KT 10SM FEW010 BKN018 OVC027 12/08 A2979 RMK AO2 RAB0555E12 SLP089 P0000 T01170083 $
KBUF 220607Z 31013KT 8SM -RA SCT009 OVC019 12/10 A2977 RMK AO2 RAB0555 P0000 T01220100 $
KBUF 220602Z 31013G21KT 8SM -RA BKN009 OVC016 12/11 A2977 RMK AO2 RAB0555 CIG 007V012 P0000 T01220106 $
KBUF 220554Z 31011KT 10SM BKN011 BKN016 OVC049 13/11 A2976 RMK AO2 CIG 007V014 SLP077 60015 T01330111 10167 20133 $
KBUF 220543Z 27014G21KT 10SM BKN011 BKN023 OVC049 14/11 A2975 RMK AO2 T01390111 $
KBUF 220454Z 26013KT 10SM BKN048 OVC060 14/11 A2974 RMK AO2 SLP069 T01390111 401940139 $

METAR Board
Radar Display
Forecast Discussion
For situational awareness. Not to be used for flight planning purposes.